sensor_id;sensor_type;location;lat;lon;timestamp;pressure;altitude;pressure_sealevel;temperature;humidity
73453;BME280;61687;56.232;43.854;2022-07-17T00:01:12;100696.69;;;16.29;78.47
73453;BME280;61687;56.232;43.854;2022-07-17T00:03:38;100700.25;;;16.30;78.51
73453;BME280;61687;56.232;43.854;2022-07-17T00:06:05;100702.22;;;16.29;78.68
73453;BME280;61687;56.232;43.854;2022-07-17T00:08:31;100699.09;;;16.27;78.67
73453;BME280;61687;56.232;43.854;2022-07-17T00:10:58;100701.84;;;16.24;78.85
73453;BME280;61687;56.232;43.854;2022-07-17T00:13:24;100707.38;;;16.20;78.99
73453;BME280;61687;56.232;43.854;2022-07-17T00:15:51;100714.50;;;16.17;78.97
73453;BME280;61687;56.232;43.854;2022-07-17T00:18:17;100718.44;;;16.13;78.92
73453;BME280;61687;56.232;43.854;2022-07-17T00:20:43;100716.06;;;16.11;78.92
73453;BME280;61687;56.232;43.854;2022-07-17T00:23:11;100712.13;;;16.09;79.10
73453;BME280;61687;56.232;43.854;2022-07-17T00:25:37;100710.53;;;16.04;78.97
73453;BME280;61687;56.232;43.854;2022-07-17T00:28:03;100705.44;;;16.02;79.00
73453;BME280;61687;56.232;43.854;2022-07-17T00:30:29;100710.53;;;16.00;78.99
73453;BME280;61687;56.232;43.854;2022-07-17T00:32:55;100710.94;;;15.99;78.84
73453;BME280;61687;56.232;43.854;2022-07-17T00:35:21;100708.56;;;15.97;78.76
73453;BME280;61687;56.232;43.854;2022-07-17T00:37:47;100715.69;;;15.95;78.67
73453;BME280;61687;56.232;43.854;2022-07-17T00:40:19;100710.94;;;15.92;78.54
73453;BME280;61687;56.232;43.854;2022-07-17T00:42:45;100714.47;;;15.88;78.57
73453;BME280;61687;56.232;43.854;2022-07-17T00:45:12;100722.75;;;15.85;78.65
73453;BME280;61687;56.232;43.854;2022-07-17T00:47:58;100720.78;;;15.82;78.77
73453;BME280;61687;56.232;43.854;2022-07-17T00:50:36;100719.19;;;15.81;78.92
73453;BME280;61687;56.232;43.854;2022-07-17T00:53:03;100726.31;;;15.82;79.01
73453;BME280;61687;56.232;43.854;2022-07-17T00:55:30;100732.22;;;15.84;79.00
73453;BME280;61687;56.232;43.854;2022-07-17T00:57:56;100734.63;;;15.89;78.81
73453;BME280;61687;56.232;43.854;2022-07-17T01:00:23;100733.44;;;15.97;78.66
73453;BME280;61687;56.232;43.854;2022-07-17T01:02:51;100731.09;;;16.07;78.60
73453;BME280;61687;56.232;43.854;2022-07-17T01:05:18;100734.66;;;16.14;78.33
73453;BME280;61687;56.232;43.854;2022-07-17T01:07:44;100736.22;;;16.23;78.16
73453;BME280;61687;56.232;43.854;2022-07-17T01:10:11;100734.22;;;16.30;77.99
73453;BME280;61687;56.232;43.854;2022-07-17T01:12:38;100732.63;;;16.37;77.97
73453;BME280;61687;56.232;43.854;2022-07-17T01:15:06;100733.41;;;16.44;77.91
73453;BME280;61687;56.232;43.854;2022-07-17T01:17:34;100727.88;;;16.52;78.03
73453;BME280;61687;56.232;43.854;2022-07-17T01:20:02;100727.06;;;16.58;78.00
73453;BME280;61687;56.232;43.854;2022-07-17T01:22:29;100730.63;;;16.66;77.80
73453;BME280;61687;56.232;43.854;2022-07-17T01:24:54;100731.78;;;16.72;77.96
73453;BME280;61687;56.232;43.854;2022-07-17T01:27:20;100734.53;;;16.80;77.86
73453;BME280;61687;56.232;43.854;2022-07-17T01:29:46;100736.47;;;16.86;77.71
73453;BME280;61687;56.232;43.854;2022-07-17T01:32:12;100737.63;;;16.96;77.46
73453;BME280;61687;56.232;43.854;2022-07-17T01:34:38;100726.53;;;17.07;77.20
73453;BME280;61687;56.232;43.854;2022-07-17T01:37:04;100730.44;;;17.17;77.05
73453;BME280;61687;56.232;43.854;2022-07-17T01:39:29;100722.91;;;17.25;76.57
73453;BME280;61687;56.232;43.854;2022-07-17T01:42:14;100724.47;;;17.33;76.59
73453;BME280;61687;56.232;43.854;2022-07-17T01:44:40;100733.09;;;17.42;76.59
73453;BME280;61687;56.232;43.854;2022-07-17T01:47:05;100734.63;;;17.51;76.24
73453;BME280;61687;56.232;43.854;2022-07-17T01:49:31;100737.00;;;17.56;76.07
73453;BME280;61687;56.232;43.854;2022-07-17T01:51:57;100736.94;;;17.63;75.95
73453;BME280;61687;56.232;43.854;2022-07-17T01:54:31;100736.09;;;17.70;75.73
73453;BME280;61687;56.232;43.854;2022-07-17T01:56:56;100740.00;;;17.76;75.62
73453;BME280;61687;56.232;43.854;2022-07-17T01:59:23;100741.16;;;17.82;75.45
73453;BME280;61687;56.232;43.854;2022-07-17T02:01:48;100735.19;;;17.87;75.80
73453;BME280;61687;56.232;43.854;2022-07-17T02:04:14;100733.94;;;17.92;75.73
73453;BME280;61687;56.232;43.854;2022-07-17T02:06:40;100733.53;;;17.97;76.02
73453;BME280;61687;56.232;43.854;2022-07-17T02:09:06;100737.88;;;17.98;75.93
73453;BME280;61687;56.232;43.854;2022-07-17T02:11:32;100741.84;;;17.97;76.00
73453;BME280;61687;56.232;43.854;2022-07-17T02:13:57;100735.94;;;17.95;76.23
73453;BME280;61687;56.232;43.854;2022-07-17T02:16:23;100738.28;;;17.93;76.06
73453;BME280;61687;56.232;43.854;2022-07-17T02:18:49;100737.13;;;17.94;75.92
73453;BME280;61687;56.232;43.854;2022-07-17T02:21:15;100737.06;;;17.98;75.96
73453;BME280;61687;56.232;43.854;2022-07-17T02:23:41;100740.63;;;18.02;75.78
73453;BME280;61687;56.232;43.854;2022-07-17T02:26:07;100738.28;;;18.04;75.64
73453;BME280;61687;56.232;43.854;2022-07-17T02:28:34;100742.22;;;18.03;75.68
73453;BME280;61687;56.232;43.854;2022-07-17T02:31:00;100738.28;;;18.04;75.85
73453;BME280;61687;56.232;43.854;2022-07-17T02:33:25;100742.19;;;18.07;75.51
73453;BME280;61687;56.232;43.854;2022-07-17T02:35:51;100740.59;;;18.09;75.66
73453;BME280;61687;56.232;43.854;2022-07-17T02:38:17;100741.72;;;18.15;75.62
73453;BME280;61687;56.232;43.854;2022-07-17T02:40:43;100742.84;;;18.22;75.53
73453;BME280;61687;56.232;43.854;2022-07-17T02:43:09;100751.53;;;18.27;75.42
73453;BME280;61687;56.232;43.854;2022-07-17T02:45:35;100755.44;;;18.34;74.96
73453;BME280;61687;56.232;43.854;2022-07-17T02:48:01;100751.41;;;18.42;75.11
73453;BME280;61687;56.232;43.854;2022-07-17T02:50:27;100746.97;;;18.48;74.47
73453;BME280;61687;56.232;43.854;2022-07-17T02:52:53;100746.13;;;18.55;73.38
73453;BME280;61687;56.232;43.854;2022-07-17T02:55:19;100751.22;;;18.60;73.42
73453;BME280;61687;56.232;43.854;2022-07-17T02:57:45;100750.00;;;18.65;73.17
73453;BME280;61687;56.232;43.854;2022-07-17T03:00:16;100744.81;;;18.67;72.31
73453;BME280;61687;56.232;43.854;2022-07-17T03:02:43;100746.41;;;18.64;72.45
73453;BME280;61687;56.232;43.854;2022-07-17T03:05:09;100747.22;;;18.65;72.38
73453;BME280;61687;56.232;43.854;2022-07-17T03:07:35;100733.69;;;18.67;72.42
73453;BME280;61687;56.232;43.854;2022-07-17T03:10:02;100734.44;;;18.71;72.30
73453;BME280;61687;56.232;43.854;2022-07-17T03:12:28;100733.97;;;18.76;71.88
73453;BME280;61687;56.232;43.854;2022-07-17T03:14:54;100736.69;;;18.83;72.10
73453;BME280;61687;56.232;43.854;2022-07-17T03:17:20;100735.03;;;18.90;72.46
73453;BME280;61687;56.232;43.854;2022-07-17T03:19:46;100734.19;;;18.93;72.01
73453;BME280;61687;56.232;43.854;2022-07-17T03:22:12;100735.75;;;18.97;71.32
73453;BME280;61687;56.232;43.854;2022-07-17T03:24:37;100735.34;;;18.99;71.78
73453;BME280;61687;56.232;43.854;2022-07-17T03:27:03;100736.50;;;19.01;72.12
73453;BME280;61687;56.232;43.854;2022-07-17T03:29:29;100722.63;;;19.01;72.10
73453;BME280;61687;56.232;43.854;2022-07-17T03:31:55;100732.53;;;19.02;72.00
73453;BME280;61687;56.232;43.854;2022-07-17T03:34:21;100726.22;;;18.98;71.97
73453;BME280;61687;56.232;43.854;2022-07-17T03:36:47;100725.84;;;18.96;72.24
73453;BME280;61687;56.232;43.854;2022-07-17T03:39:14;100724.66;;;18.94;72.19
73453;BME280;61687;56.232;43.854;2022-07-17T03:41:40;100725.47;;;18.94;72.36
73453;BME280;61687;56.232;43.854;2022-07-17T03:44:06;100728.63;;;18.96;72.28
73453;BME280;61687;56.232;43.854;2022-07-17T03:46:34;100725.84;;;18.96;72.39
73453;BME280;61687;56.232;43.854;2022-07-17T03:49:00;100719.94;;;18.91;72.53
73453;BME280;61687;56.232;43.854;2022-07-17T03:51:26;100723.16;;;18.89;73.03
73453;BME280;61687;56.232;43.854;2022-07-17T03:53:51;100722.72;;;18.91;72.70
73453;BME280;61687;56.232;43.854;2022-07-17T03:56:18;100715.94;;;18.95;72.60
73453;BME280;61687;56.232;43.854;2022-07-17T03:58:44;100717.50;;;19.00;71.37
73453;BME280;61687;56.232;43.854;2022-07-17T04:01:10;100722.16;;;19.07;71.56
73453;BME280;61687;56.232;43.854;2022-07-17T04:03:36;100722.47;;;19.12;71.66
73453;BME280;61687;56.232;43.854;2022-07-17T04:06:02;100724.00;;;19.17;72.09
73453;BME280;61687;56.232;43.854;2022-07-17T04:08:28;100724.72;;;19.25;71.94
73453;BME280;61687;56.232;43.854;2022-07-17T04:10:54;100729.00;;;19.29;72.02
73453;BME280;61687;56.232;43.854;2022-07-17T04:13:20;100717.72;;;19.40;71.91
73453;BME280;61687;56.232;43.854;2022-07-17T04:15:46;100715.97;;;19.54;70.92
73453;BME280;61687;56.232;43.854;2022-07-17T04:18:27;100719.22;;;19.76;69.55
73453;BME280;61687;56.232;43.854;2022-07-17T04:20:56;100721.69;;;19.98;69.37
73453;BME280;61687;56.232;43.854;2022-07-17T04:23:22;100724.19;;;20.12;68.75
73453;BME280;61687;56.232;43.854;2022-07-17T04:25:48;100728.66;;;20.30;67.34
73453;BME280;61687;56.232;43.854;2022-07-17T04:28:14;100717.28;;;20.44;66.50
73453;BME280;61687;56.232;43.854;2022-07-17T04:30:40;100725.44;;;20.55;65.70
73453;BME280;61687;56.232;43.854;2022-07-17T04:33:07;100720.44;;;20.67;66.11
73453;BME280;61687;56.232;43.854;2022-07-17T04:35:33;100719.00;;;20.79;66.50
73453;BME280;61687;56.232;43.854;2022-07-17T04:37:59;100712.88;;;20.87;65.67
73453;BME280;61687;56.232;43.854;2022-07-17T04:40:25;100715.09;;;20.96;65.39
73453;BME280;61687;56.232;43.854;2022-07-17T04:42:50;100722.19;;;21.01;64.99
73453;BME280;61687;56.232;43.854;2022-07-17T04:45:16;100723.34;;;21.04;64.93
73453;BME280;61687;56.232;43.854;2022-07-17T04:47:42;100715.75;;;21.04;64.07
73453;BME280;61687;56.232;43.854;2022-07-17T04:50:08;100713.31;;;21.06;63.75
73453;BME280;61687;56.232;43.854;2022-07-17T04:52:35;100720.44;;;21.07;63.59
73453;BME280;61687;56.232;43.854;2022-07-17T04:55:02;100719.97;;;21.12;63.11
73453;BME280;61687;56.232;43.854;2022-07-17T04:57:28;100716.22;;;21.19;62.69
73453;BME280;61687;56.232;43.854;2022-07-17T04:59:54;100713.78;;;21.21;62.63
73453;BME280;61687;56.232;43.854;2022-07-17T05:02:20;100711.44;;;21.20;62.44
73453;BME280;61687;56.232;43.854;2022-07-17T05:04:46;100714.66;;;21.18;61.81
73453;BME280;61687;56.232;43.854;2022-07-17T05:07:13;100718.31;;;21.15;60.14
73453;BME280;61687;56.232;43.854;2022-07-17T05:09:39;100709.22;;;21.11;59.85
73453;BME280;61687;56.232;43.854;2022-07-17T05:12:05;100718.00;;;21.09;60.86
73453;BME280;61687;56.232;43.854;2022-07-17T05:14:31;100713.88;;;21.18;60.20
73453;BME280;61687;56.232;43.854;2022-07-17T05:16:57;100715.13;;;21.33;60.12
73453;BME280;61687;56.232;43.854;2022-07-17T05:19:22;100713.50;;;21.52;59.63
73453;BME280;61687;56.232;43.854;2022-07-17T05:21:49;100721.56;;;21.67;59.38
73453;BME280;61687;56.232;43.854;2022-07-17T05:24:16;100713.28;;;21.80;58.88
73453;BME280;61687;56.232;43.854;2022-07-17T05:26:41;100705.41;;;21.91;59.32
73453;BME280;61687;56.232;43.854;2022-07-17T05:29:07;100709.16;;;22.01;58.84
73453;BME280;61687;56.232;43.854;2022-07-17T05:31:33;100713.44;;;22.06;58.61
73453;BME280;61687;56.232;43.854;2022-07-17T05:33:59;100714.13;;;22.10;59.45
73453;BME280;61687;56.232;43.854;2022-07-17T05:36:25;100721.63;;;22.13;58.86
73453;BME280;61687;56.232;43.854;2022-07-17T05:38:51;100712.13;;;22.10;59.36
73453;BME280;61687;56.232;43.854;2022-07-17T05:41:17;100714.59;;;22.08;58.96
73453;BME280;61687;56.232;43.854;2022-07-17T05:43:43;100704.81;;;22.00;58.89
73453;BME280;61687;56.232;43.854;2022-07-17T05:46:09;100705.34;;;21.95;58.91
73453;BME280;61687;56.232;43.854;2022-07-17T05:48:34;100701.06;;;21.90;60.07
73453;BME280;61687;56.232;43.854;2022-07-17T05:51:00;100706.75;;;21.86;59.51
73453;BME280;61687;56.232;43.854;2022-07-17T05:53:26;100696.44;;;21.83;60.58
73453;BME280;61687;56.232;43.854;2022-07-17T05:55:52;100706.03;;;21.82;60.90
73453;BME280;61687;56.232;43.854;2022-07-17T05:58:18;100700.63;;;21.92;61.05
73453;BME280;61687;56.232;43.854;2022-07-17T06:00:45;100704.19;;;22.09;60.97
73453;BME280;61687;56.232;43.854;2022-07-17T06:03:11;100701.91;;;22.20;61.03
73453;BME280;61687;56.232;43.854;2022-07-17T06:05:37;100700.84;;;22.30;61.13
73453;BME280;61687;56.232;43.854;2022-07-17T06:08:03;100703.69;;;22.43;60.32
73453;BME280;61687;56.232;43.854;2022-07-17T06:10:29;100702.44;;;22.61;60.72
73453;BME280;61687;56.232;43.854;2022-07-17T06:12:55;100705.75;;;22.85;59.91
73453;BME280;61687;56.232;43.854;2022-07-17T06:15:22;100683.75;;;23.13;59.92
73453;BME280;61687;56.232;43.854;2022-07-17T06:17:49;100687.22;;;23.18;60.08
73453;BME280;61687;56.232;43.854;2022-07-17T06:20:16;100692.63;;;23.25;60.26
73453;BME280;61687;56.232;43.854;2022-07-17T06:22:43;100687.38;;;23.27;59.82
73453;BME280;61687;56.232;43.854;2022-07-17T06:25:10;100691.25;;;23.16;60.15
73453;BME280;61687;56.232;43.854;2022-07-17T06:27:40;100692.38;;;23.06;60.64
73453;BME280;61687;56.232;43.854;2022-07-17T06:30:11;100701.50;;;22.94;60.96
73453;BME280;61687;56.232;43.854;2022-07-17T06:32:38;100708.09;;;22.87;61.98
73453;BME280;61687;56.232;43.854;2022-07-17T06:35:04;100698.59;;;22.84;61.13
73453;BME280;61687;56.232;43.854;2022-07-17T06:37:30;100700.34;;;22.78;61.88
73453;BME280;61687;56.232;43.854;2022-07-17T06:39:57;100694.53;;;22.72;62.37
73453;BME280;61687;56.232;43.854;2022-07-17T06:42:22;100696.28;;;22.66;62.44
73453;BME280;61687;56.232;43.854;2022-07-17T06:44:48;100693.63;;;22.63;62.71
73453;BME280;61687;56.232;43.854;2022-07-17T06:47:14;100688.03;;;22.63;62.67
73453;BME280;61687;56.232;43.854;2022-07-17T06:49:40;100683.31;;;22.59;62.61
73453;BME280;61687;56.232;43.854;2022-07-17T06:52:06;100685.66;;;22.61;62.83
73453;BME280;61687;56.232;43.854;2022-07-17T06:54:32;100681.31;;;22.60;62.67
73453;BME280;61687;56.232;43.854;2022-07-17T06:56:58;100690.81;;;22.63;62.49
73453;BME280;61687;56.232;43.854;2022-07-17T06:59:24;100686.91;;;22.60;62.44
73453;BME280;61687;56.232;43.854;2022-07-17T07:01:50;100691.28;;;22.74;62.44
73453;BME280;61687;56.232;43.854;2022-07-17T07:04:16;100677.34;;;22.87;62.25
73453;BME280;61687;56.232;43.854;2022-07-17T07:06:42;100665.84;;;22.98;62.60
73453;BME280;61687;56.232;43.854;2022-07-17T07:09:08;100676.50;;;23.16;61.67
73453;BME280;61687;56.232;43.854;2022-07-17T07:11:37;100675.53;;;23.36;60.44
73453;BME280;61687;56.232;43.854;2022-07-17T07:14:04;100673.94;;;23.48;60.43
73453;BME280;61687;56.232;43.854;2022-07-17T07:16:29;100680.97;;;23.65;59.49
73453;BME280;61687;56.232;43.854;2022-07-17T07:18:55;100678.94;;;23.79;58.21
73453;BME280;61687;56.232;43.854;2022-07-17T07:21:21;100673.88;;;23.86;58.18
73453;BME280;61687;56.232;43.854;2022-07-17T07:23:50;100670.06;;;23.93;57.86
73453;BME280;61687;56.232;43.854;2022-07-17T07:26:16;100674.53;;;24.04;56.64
73453;BME280;61687;56.232;43.854;2022-07-17T07:28:42;100680.88;;;24.17;55.67
73453;BME280;61687;56.232;43.854;2022-07-17T07:31:08;100671.63;;;24.29;54.50
73453;BME280;61687;56.232;43.854;2022-07-17T07:33:36;100677.63;;;24.41;54.29
73453;BME280;61687;56.232;43.854;2022-07-17T07:36:03;100673.31;;;24.49;53.85
73453;BME280;61687;56.232;43.854;2022-07-17T07:38:28;100669.97;;;24.54;53.67
73453;BME280;61687;56.232;43.854;2022-07-17T07:40:54;100669.69;;;24.62;52.45
73453;BME280;61687;56.232;43.854;2022-07-17T07:43:21;100670.66;;;24.68;52.55
73453;BME280;61687;56.232;43.854;2022-07-17T07:45:47;100674.00;;;24.76;52.70
73453;BME280;61687;56.232;43.854;2022-07-17T07:48:13;100674.50;;;24.83;52.80
73453;BME280;61687;56.232;43.854;2022-07-17T07:50:39;100669.88;;;24.90;52.61
73453;BME280;61687;56.232;43.854;2022-07-17T07:53:05;100685.63;;;24.96;52.25
73453;BME280;61687;56.232;43.854;2022-07-17T07:55:31;100677.09;;;25.00;51.41
73453;BME280;61687;56.232;43.854;2022-07-17T07:58:07;100681.16;;;25.08;51.60
73453;BME280;61687;56.232;43.854;2022-07-17T08:00:34;100679.00;;;25.12;51.36
73453;BME280;61687;56.232;43.854;2022-07-17T08:03:00;100671.72;;;25.15;51.16
73453;BME280;61687;56.232;43.854;2022-07-17T08:05:27;100674.38;;;25.19;50.69
73453;BME280;61687;56.232;43.854;2022-07-17T08:07:53;100678.38;;;25.08;50.39
73453;BME280;61687;56.232;43.854;2022-07-17T08:10:19;100674.28;;;25.00;50.51
73453;BME280;61687;56.232;43.854;2022-07-17T08:12:45;100677.50;;;24.89;51.33
73453;BME280;61687;56.232;43.854;2022-07-17T08:15:11;100680.75;;;24.88;50.70
73453;BME280;61687;56.232;43.854;2022-07-17T08:17:37;100673.72;;;24.83;50.61
73453;BME280;61687;56.232;43.854;2022-07-17T08:20:03;100677.00;;;24.81;51.76
73453;BME280;61687;56.232;43.854;2022-07-17T08:22:30;100680.13;;;24.83;51.16
73453;BME280;61687;56.232;43.854;2022-07-17T08:24:56;100675.94;;;24.88;51.17
73453;BME280;61687;56.232;43.854;2022-07-17T08:27:21;100672.72;;;24.99;51.19
73453;BME280;61687;56.232;43.854;2022-07-17T08:29:47;100681.22;;;25.18;50.66
73453;BME280;61687;56.232;43.854;2022-07-17T08:32:13;100677.38;;;25.34;51.19
73453;BME280;61687;56.232;43.854;2022-07-17T08:34:39;100677.94;;;25.51;49.44
73453;BME280;61687;56.232;43.854;2022-07-17T08:37:05;100672.38;;;25.69;48.75
73453;BME280;61687;56.232;43.854;2022-07-17T08:39:31;100668.47;;;25.85;48.85
73453;BME280;61687;56.232;43.854;2022-07-17T08:41:57;100681.00;;;26.03;49.71
73453;BME280;61687;56.232;43.854;2022-07-17T08:44:23;100671.66;;;26.25;49.89
73453;BME280;61687;56.232;43.854;2022-07-17T08:46:49;100677.72;;;26.42;48.45
73453;BME280;61687;56.232;43.854;2022-07-17T08:49:20;100678.03;;;26.53;46.43
73453;BME280;61687;56.232;43.854;2022-07-17T08:51:49;100677.41;;;26.58;46.75
73453;BME280;61687;56.232;43.854;2022-07-17T08:54:15;100670.38;;;26.63;47.04
73453;BME280;61687;56.232;43.854;2022-07-17T08:56:42;100669.91;;;26.65;45.55
73453;BME280;61687;56.232;43.854;2022-07-17T08:59:07;100668.00;;;26.62;46.15
73453;BME280;61687;56.232;43.854;2022-07-17T09:01:33;100671.16;;;26.54;45.55
73453;BME280;61687;56.232;43.854;2022-07-17T09:04:01;100671.94;;;26.46;44.87
73453;BME280;61687;56.232;43.854;2022-07-17T09:06:35;100663.84;;;26.38;46.17
73453;BME280;61687;56.232;43.854;2022-07-17T09:09:12;100659.97;;;26.26;47.67
73453;BME280;61687;56.232;43.854;2022-07-17T09:11:43;100657.59;;;26.25;46.80
73453;BME280;61687;56.232;43.854;2022-07-17T09:14:09;100659.63;;;26.15;46.34
73453;BME280;61687;56.232;43.854;2022-07-17T09:16:46;100656.19;;;26.02;46.99
73453;BME280;61687;56.232;43.854;2022-07-17T09:19:32;100657.91;;;25.99;46.84
73453;BME280;61687;56.232;43.854;2022-07-17T09:22:09;100657.91;;;25.99;46.83
73453;BME280;61687;56.232;43.854;2022-07-17T09:24:56;100657.75;;;26.03;47.77
73453;BME280;61687;56.232;43.854;2022-07-17T09:27:29;100645.88;;;26.08;47.45
73453;BME280;61687;56.232;43.854;2022-07-17T09:32:38;100645.59;;;26.24;46.11
73453;BME280;61687;56.232;43.854;2022-07-17T09:35:07;100652.16;;;26.31;46.25
73453;BME280;61687;56.232;43.854;2022-07-17T09:37:34;100651.22;;;26.34;46.44
73453;BME280;61687;56.232;43.854;2022-07-17T09:40:01;100649.94;;;26.35;46.48
73453;BME280;61687;56.232;43.854;2022-07-17T09:42:31;100653.25;;;26.33;45.38
73453;BME280;61687;56.232;43.854;2022-07-17T09:45:02;100647.78;;;26.29;45.39
73453;BME280;61687;56.232;43.854;2022-07-17T09:47:30;100645.13;;;26.26;46.84
73453;BME280;61687;56.232;43.854;2022-07-17T09:49:58;100637.00;;;26.28;46.14
73453;BME280;61687;56.232;43.854;2022-07-17T09:52:27;100635.28;;;26.31;46.64
73453;BME280;61687;56.232;43.854;2022-07-17T09:54:54;100641.53;;;26.35;46.97
73453;BME280;61687;56.232;43.854;2022-07-17T09:57:28;100629.19;;;26.41;47.15
73453;BME280;61687;56.232;43.854;2022-07-17T09:59:55;100633.22;;;26.50;47.09
73453;BME280;61687;56.232;43.854;2022-07-17T10:02:22;100630.56;;;26.55;45.06
73453;BME280;61687;56.232;43.854;2022-07-17T10:04:48;100628.06;;;26.57;44.61
73453;BME280;61687;56.232;43.854;2022-07-17T10:07:14;100636.47;;;26.57;44.09
73453;BME280;61687;56.232;43.854;2022-07-17T10:09:40;100633.38;;;26.55;43.91
73453;BME280;61687;56.232;43.854;2022-07-17T10:12:07;100631.34;;;26.56;44.29
73453;BME280;61687;56.232;43.854;2022-07-17T10:14:37;100631.63;;;26.67;45.21
73453;BME280;61687;56.232;43.854;2022-07-17T10:17:12;100628.31;;;26.88;44.20
73453;BME280;61687;56.232;43.854;2022-07-17T10:19:48;100623.84;;;27.05;44.08
73453;BME280;61687;56.232;43.854;2022-07-17T10:22:14;100627.25;;;28.16;42.29
73453;BME280;61687;56.232;43.854;2022-07-17T10:24:54;100612.88;;;30.08;39.39
73453;BME280;61687;56.232;43.854;2022-07-17T10:27:23;100621.59;;;31.88;35.25
73453;BME280;61687;56.232;43.854;2022-07-17T10:30:01;100611.94;;;33.67;33.24
73453;BME280;61687;56.232;43.854;2022-07-17T10:32:29;100605.03;;;35.02;31.00
73453;BME280;61687;56.232;43.854;2022-07-17T10:35:01;100615.69;;;36.03;30.87
73453;BME280;61687;56.232;43.854;2022-07-17T10:40:11;100613.28;;;38.36;28.24
73453;BME280;61687;56.232;43.854;2022-07-17T10:45:08;100606.88;;;38.94;27.03
73453;BME280;61687;56.232;43.854;2022-07-17T10:50:24;100610.72;;;39.78;25.94
73453;BME280;61687;56.232;43.854;2022-07-17T10:55:31;100607.00;;;40.92;26.04
73453;BME280;61687;56.232;43.854;2022-07-17T10:57:58;100611.94;;;39.38;27.67
73453;BME280;61687;56.232;43.854;2022-07-17T11:00:23;100618.50;;;37.55;29.87
73453;BME280;61687;56.232;43.854;2022-07-17T11:02:50;100615.78;;;36.17;30.83
73453;BME280;61687;56.232;43.854;2022-07-17T11:05:16;100617.44;;;36.26;30.83
73453;BME280;61687;56.232;43.854;2022-07-17T11:07:53;100613.13;;;36.51;30.74
73453;BME280;61687;56.232;43.854;2022-07-17T11:10:21;100601.94;;;35.69;32.62
73453;BME280;61687;56.232;43.854;2022-07-17T11:12:47;100599.34;;;34.96;33.91
73453;BME280;61687;56.232;43.854;2022-07-17T11:15:13;100601.63;;;34.12;34.21
73453;BME280;61687;56.232;43.854;2022-07-17T11:17:44;100612.63;;;33.15;36.25
73453;BME280;61687;56.232;43.854;2022-07-17T11:20:11;100603.34;;;32.23;37.69
73453;BME280;61687;56.232;43.854;2022-07-17T11:22:36;100610.34;;;31.50;38.66
73453;BME280;61687;56.232;43.854;2022-07-17T11:25:04;100610.56;;;30.97;39.68
73453;BME280;61687;56.232;43.854;2022-07-17T11:27:30;100605.66;;;30.92;38.80
73453;BME280;61687;56.232;43.854;2022-07-17T11:29:59;100603.53;;;30.87;38.77
73453;BME280;61687;56.232;43.854;2022-07-17T11:32:36;100608.59;;;30.71;39.61
73453;BME280;61687;56.232;43.854;2022-07-17T11:35:14;100612.06;;;30.60;40.63
73453;BME280;61687;56.232;43.854;2022-07-17T11:37:40;100619.44;;;30.52;41.56
73453;BME280;61687;56.232;43.854;2022-07-17T11:40:06;100605.56;;;30.54;41.11
73453;BME280;61687;56.232;43.854;2022-07-17T11:42:32;100606.59;;;31.21;40.43
73453;BME280;61687;56.232;43.854;2022-07-17T11:44:58;100599.28;;;32.69;37.60
73453;BME280;61687;56.232;43.854;2022-07-17T11:47:26;100604.88;;;34.89;35.55
73453;BME280;61687;56.232;43.854;2022-07-17T11:50:10;100597.41;;;37.18;31.32
73453;BME280;61687;56.232;43.854;2022-07-17T11:52:45;100596.53;;;39.20;29.23
73453;BME280;61687;56.232;43.854;2022-07-17T11:55:11;100589.97;;;40.63;27.42
73453;BME280;61687;56.232;43.854;2022-07-17T11:57:46;100590.31;;;40.98;27.19
73453;BME280;61687;56.232;43.854;2022-07-17T12:00:14;100582.69;;;39.92;28.46
73453;BME280;61687;56.232;43.854;2022-07-17T12:02:40;100576.81;;;39.16;29.73
73453;BME280;61687;56.232;43.854;2022-07-17T12:05:06;100580.59;;;40.08;28.58
73453;BME280;61687;56.232;43.854;2022-07-17T12:07:58;100583.09;;;40.74;28.16
73453;BME280;61687;56.232;43.854;2022-07-17T12:10:27;100585.44;;;39.61;29.41
73453;BME280;61687;56.232;43.854;2022-07-17T14:31:04;100560.22;;;28.71;43.99
73453;BME280;61687;56.232;43.854;2022-07-17T14:33:29;100561.38;;;28.94;43.21
73453;BME280;61687;56.232;43.854;2022-07-17T14:35:55;100553.97;;;29.53;42.35
73453;BME280;61687;56.232;43.854;2022-07-17T14:38:21;100562.72;;;29.55;42.74
73453;BME280;61687;56.232;43.854;2022-07-17T14:40:47;100557.56;;;30.27;41.32
73453;BME280;61687;56.232;43.854;2022-07-17T14:43:13;100559.03;;;30.49;40.15
73453;BME280;61687;56.232;43.854;2022-07-17T14:45:38;100557.56;;;30.27;40.33
73453;BME280;61687;56.232;43.854;2022-07-17T14:48:04;100557.38;;;30.05;41.32
73453;BME280;61687;56.232;43.854;2022-07-17T14:50:30;100551.31;;;29.70;41.80
73453;BME280;61687;56.232;43.854;2022-07-17T14:52:56;100551.88;;;29.33;43.02
73453;BME280;61687;56.232;43.854;2022-07-17T14:55:22;100556.78;;;28.97;43.85
73453;BME280;61687;56.232;43.854;2022-07-17T14:57:48;100551.00;;;28.70;44.05
73453;BME280;61687;56.232;43.854;2022-07-17T15:00:14;100558.53;;;28.43;45.14
73453;BME280;61687;56.232;43.854;2022-07-17T15:02:40;100555.81;;;28.19;45.25
73453;BME280;61687;56.232;43.854;2022-07-17T15:05:07;100556.56;;;28.05;45.79
73453;BME280;61687;56.232;43.854;2022-07-17T15:07:33;100559.25;;;27.99;46.02
73453;BME280;61687;56.232;43.854;2022-07-17T15:09:59;100558.63;;;28.04;46.18
73453;BME280;61687;56.232;43.854;2022-07-17T15:12:25;100562.97;;;28.05;45.77